createdAt,value
2022-12-27T00:01:35.668Z,1.80
2022-12-27T00:04:04.174Z,1.80
2022-12-27T00:06:32.003Z,1.57
2022-12-27T00:08:59.755Z,1.20
2022-12-27T00:11:29.898Z,1.93
2022-12-27T00:13:59.346Z,2.30
2022-12-27T00:16:28.266Z,1.50
2022-12-27T00:18:57.468Z,1.50
2022-12-27T00:21:25.189Z,2.33
2022-12-27T00:23:54.542Z,1.70
2022-12-27T00:26:24.201Z,1.50
2022-12-27T00:28:51.890Z,1.53
2022-12-27T00:31:21.215Z,2.00
2022-12-27T00:33:50.804Z,1.70
2022-12-27T00:36:22.050Z,1.60
2022-12-27T00:38:50.199Z,1.80
2022-12-27T00:41:18.099Z,2.23
2022-12-27T00:43:46.121Z,1.27
2022-12-27T00:46:14.040Z,1.53
2022-12-27T00:48:41.763Z,1.30
2022-12-27T00:51:12.593Z,1.67
2022-12-27T00:53:41.861Z,1.83
2022-12-27T00:56:11.681Z,1.93
2022-12-27T00:58:41.058Z,1.63
2022-12-27T01:01:10.253Z,1.57
2022-12-27T01:03:38.079Z,1.70
2022-12-27T01:06:06.314Z,1.13
2022-12-27T01:08:33.813Z,1.50
2022-12-27T01:11:02.661Z,1.67
2022-12-27T01:13:31.114Z,1.67
2022-12-27T01:15:58.636Z,2.07
2022-12-27T01:18:26.208Z,1.43
2022-12-27T01:20:53.700Z,2.00
2022-12-27T01:23:21.447Z,1.80
2022-12-27T01:25:48.882Z,1.50
2022-12-27T01:28:17.781Z,1.80
2022-12-27T01:30:45.234Z,1.80
2022-12-27T01:33:12.691Z,2.07
2022-12-27T01:35:40.294Z,1.97
2022-12-27T01:38:07.899Z,1.93
2022-12-27T01:40:36.530Z,2.37
2022-12-27T01:43:03.577Z,1.97
2022-12-27T01:45:35.737Z,2.27
2022-12-27T01:48:07.700Z,2.50
2022-12-27T01:50:37.760Z,2.33
2022-12-27T01:53:12.886Z,2.77
2022-12-27T01:55:45.505Z,2.53
2022-12-27T01:58:17.716Z,2.20
2022-12-27T02:00:49.735Z,2.73
2022-12-27T02:03:21.021Z,3.33
2022-12-27T02:05:49.163Z,2.80
2022-12-27T02:08:28.789Z,2.47
2022-12-27T02:10:58.115Z,2.40
2022-12-27T02:13:26.575Z,2.63
2022-12-27T02:15:55.684Z,2.30
2022-12-27T02:18:23.327Z,2.40
2022-12-27T02:21:11.012Z,2.90
2022-12-27T02:24:04.331Z,3.00
2022-12-27T02:26:46.935Z,3.40
2022-12-27T02:29:28.671Z,2.60
2022-12-27T02:32:02.584Z,2.57
2022-12-27T02:34:35.319Z,3.10
2022-12-27T02:37:09.255Z,2.60
2022-12-27T02:39:40.344Z,2.47
2022-12-27T02:42:27.491Z,3.10
2022-12-27T02:45:13.760Z,2.70
2022-12-27T02:47:59.258Z,2.90
2022-12-27T02:50:56.657Z,3.77
2022-12-27T02:53:36.850Z,2.43
2022-12-27T02:56:35.225Z,3.00
2022-12-27T02:59:15.923Z,2.57
2022-12-27T03:02:11.660Z,2.57
2022-12-27T03:04:55.863Z,3.10
2022-12-27T03:07:36.487Z,4.07
2022-12-27T03:10:28.789Z,3.00
2022-12-27T03:13:26.435Z,3.17
2022-12-27T03:16:13.459Z,3.40
2022-12-27T03:18:54.927Z,3.00
2022-12-27T03:21:46.602Z,3.00
2022-12-27T03:24:33.370Z,3.07
2022-12-27T03:27:02.742Z,3.63
2022-12-27T03:29:48.988Z,3.57
2022-12-27T03:32:36.377Z,3.90
2022-12-27T03:35:12.175Z,3.80
2022-12-27T03:38:01.224Z,3.20
2022-12-27T03:40:38.797Z,2.93
2022-12-27T03:43:12.227Z,3.97
2022-12-27T03:46:14.191Z,3.00
2022-12-27T03:48:54.711Z,4.50
2022-12-27T03:51:25.976Z,3.93
2022-12-27T03:53:59.728Z,3.83
2022-12-27T03:56:27.607Z,3.90
2022-12-27T03:58:58.112Z,3.60
2022-12-27T04:01:25.659Z,3.63
2022-12-27T04:03:53.146Z,3.80
2022-12-27T04:06:20.645Z,4.37
2022-12-27T04:09:07.064Z,4.07
2022-12-27T04:11:52.115Z,3.80
2022-12-27T04:14:37.745Z,4.17
2022-12-27T04:17:22.743Z,3.43
2022-12-27T04:20:07.562Z,5.20
2022-12-27T04:22:52.705Z,4.10
2022-12-27T04:25:38.998Z,4.03
2022-12-27T04:28:24.298Z,4.40
2022-12-27T04:31:09.185Z,5.27
2022-12-27T04:33:54.594Z,3.90
2022-12-27T04:36:22.068Z,3.53
2022-12-27T04:38:49.505Z,4.80
2022-12-27T04:41:36.097Z,3.80
2022-12-27T04:44:21.555Z,4.73
2022-12-27T04:47:06.700Z,4.77
2022-12-27T04:49:53.457Z,6.37
2022-12-27T04:52:41.070Z,5.30
2022-12-27T04:55:18.855Z,5.50
2022-12-27T04:57:47.833Z,5.43
2022-12-27T05:00:33.926Z,5.47
2022-12-27T05:03:02.934Z,5.27
2022-12-27T05:05:30.862Z,5.80
2022-12-27T05:08:32.326Z,6.07
2022-12-27T05:11:17.902Z,5.47
2022-12-27T05:14:02.863Z,5.93
2022-12-27T05:16:32.680Z,5.80
2022-12-27T05:19:01.297Z,6.30
2022-12-27T05:21:28.885Z,5.27
2022-12-27T05:24:13.918Z,5.13
2022-12-27T05:26:42.067Z,5.63
2022-12-27T05:29:10.861Z,6.30
2022-12-27T05:31:38.508Z,5.63
2022-12-27T05:34:06.966Z,6.20
2022-12-27T05:36:34.938Z,5.67
2022-12-27T05:39:02.577Z,4.80
2022-12-27T05:41:30.036Z,5.27
2022-12-27T05:44:03.386Z,6.10
2022-12-27T05:46:35.964Z,6.73
2022-12-27T05:49:03.470Z,6.30
2022-12-27T05:51:30.933Z,6.37
2022-12-27T05:53:58.475Z,5.53
2022-12-27T05:56:25.977Z,6.33
2022-12-27T05:58:54.412Z,6.67
2022-12-27T06:01:21.993Z,6.00
2022-12-27T06:03:50.840Z,5.70
2022-12-27T06:06:18.331Z,6.33
2022-12-27T06:08:45.762Z,5.73
2022-12-27T06:11:15.078Z,5.70
2022-12-27T06:13:44.607Z,6.17
2022-12-27T06:16:13.674Z,5.40
2022-12-27T06:18:42.777Z,6.00
2022-12-27T06:21:14.385Z,5.80
2022-12-27T06:23:44.555Z,6.60
2022-12-27T06:26:15.971Z,5.10
2022-12-27T06:28:43.467Z,6.20
2022-12-27T06:31:11.376Z,6.23
2022-12-27T06:33:39.001Z,5.90
2022-12-27T06:36:07.283Z,5.07
2022-12-27T06:38:36.257Z,5.00
2022-12-27T06:41:04.109Z,5.83
2022-12-27T06:43:31.903Z,6.43
2022-12-27T06:46:00.469Z,5.33
2022-12-27T06:48:28.375Z,6.20
2022-12-27T06:50:56.247Z,4.60
2022-12-27T06:53:24.155Z,5.77
2022-12-27T06:55:52.965Z,5.77
2022-12-27T06:58:20.407Z,6.10
2022-12-27T07:00:47.857Z,4.87
2022-12-27T07:03:15.493Z,5.63
2022-12-27T07:05:43.088Z,3.97
2022-12-27T07:08:10.532Z,4.70
2022-12-27T07:10:38.140Z,4.90
2022-12-27T07:13:07.041Z,4.70
2022-12-27T07:15:34.858Z,6.63
2022-12-27T07:18:02.341Z,5.43
2022-12-27T07:20:30.128Z,4.57
2022-12-27T07:22:58.816Z,4.83
2022-12-27T07:25:26.317Z,4.90
2022-12-27T07:27:54.346Z,5.10
2022-12-27T07:30:23.351Z,4.57
2022-12-27T07:32:50.816Z,3.80
2022-12-27T07:35:18.248Z,4.50
2022-12-27T07:37:45.695Z,4.20
2022-12-27T07:40:13.381Z,5.17
2022-12-27T07:42:40.938Z,4.93
2022-12-27T07:45:09.640Z,6.50
2022-12-27T07:47:38.418Z,4.97
2022-12-27T07:50:06.589Z,5.00
2022-12-27T07:52:34.055Z,4.90
2022-12-27T07:55:01.525Z,4.13
2022-12-27T07:57:29.395Z,4.97
2022-12-27T07:59:56.845Z,4.50
2022-12-27T08:02:24.406Z,4.77
2022-12-27T08:04:53.249Z,5.07
2022-12-27T08:07:21.050Z,4.87
2022-12-27T08:09:50.104Z,6.30
2022-12-27T08:12:17.704Z,5.70
2022-12-27T08:14:45.630Z,6.97
2022-12-27T08:17:17.356Z,4.77
2022-12-27T08:19:44.803Z,5.20
2022-12-27T08:22:13.632Z,6.00
2022-12-27T08:24:41.538Z,6.23
2022-12-27T08:27:09.678Z,4.90
2022-12-27T08:29:37.727Z,4.90
2022-12-27T08:32:05.770Z,5.63
2022-12-27T08:34:33.228Z,5.10
2022-12-27T08:37:00.970Z,7.03
2022-12-27T08:39:30.109Z,5.17
2022-12-27T08:41:57.577Z,5.90
2022-12-27T08:44:25.505Z,5.47
2022-12-27T08:46:53.081Z,6.20
2022-12-27T08:49:20.529Z,6.13
2022-12-27T08:51:47.978Z,5.97
2022-12-27T08:54:15.411Z,6.70
2022-12-27T08:56:44.231Z,7.53
2022-12-27T08:59:11.849Z,5.40
2022-12-27T09:01:39.392Z,6.77
2022-12-27T09:04:06.965Z,5.90
2022-12-27T09:06:34.539Z,5.37
2022-12-27T09:09:02.292Z,6.60
2022-12-27T09:11:33.064Z,5.77
2022-12-27T09:14:04.548Z,5.77
2022-12-27T09:16:33.967Z,5.67
2022-12-27T09:19:01.502Z,4.20
2022-12-27T09:21:32.693Z,4.80
2022-12-27T09:24:00.732Z,5.13
2022-12-27T09:26:30.075Z,5.33
2022-12-27T09:28:58.696Z,4.67
2022-12-27T09:31:28.353Z,4.63
2022-12-27T09:33:56.858Z,4.67
2022-12-27T09:36:26.686Z,4.47
2022-12-27T09:38:55.496Z,4.93
2022-12-27T09:44:30.854Z,5.60
2022-12-27T09:47:06.243Z,5.00
2022-12-27T09:49:38.703Z,5.03
2022-12-27T09:52:11.551Z,4.57
2022-12-27T09:54:51.113Z,5.40
2022-12-27T09:57:24.460Z,4.50
2022-12-27T09:59:58.274Z,4.20
2022-12-27T10:02:29.246Z,4.07
2022-12-27T10:07:56.994Z,5.00
2022-12-27T10:10:38.196Z,4.63
2022-12-27T10:13:19.492Z,4.87
2022-12-27T10:15:52.159Z,2.97
2022-12-27T10:18:33.669Z,3.50
2022-12-27T10:21:08.959Z,4.80
2022-12-27T10:23:39.049Z,5.27
2022-12-27T10:26:18.645Z,5.90
2022-12-27T10:28:48.266Z,4.73
2022-12-27T10:31:20.047Z,5.23
2022-12-27T10:33:50.933Z,5.10
2022-12-27T10:36:24.107Z,6.40
2022-12-27T10:38:51.849Z,4.60
2022-12-27T10:41:39.620Z,4.00
2022-12-27T10:44:11.306Z,4.67
2022-12-27T10:46:40.198Z,5.17
2022-12-27T10:49:22.170Z,4.37
2022-12-27T10:51:52.094Z,6.70
2022-12-27T10:54:23.623Z,7.53
2022-12-27T10:56:51.719Z,4.10
2022-12-27T10:59:21.303Z,4.70
2022-12-27T11:01:51.616Z,5.03
2022-12-27T11:04:22.560Z,3.53
2022-12-27T11:06:51.463Z,5.73
2022-12-27T11:09:28.655Z,4.73
2022-12-27T11:12:18.941Z,4.13
2022-12-27T11:15:00.252Z,4.83
2022-12-27T11:17:31.358Z,4.00
2022-12-27T11:20:07.004Z,4.00
2022-12-27T11:22:34.599Z,4.10
2022-12-27T11:25:02.075Z,3.50
2022-12-27T11:27:31.386Z,4.07
2022-12-27T11:30:00.548Z,4.50
2022-12-27T11:32:28.265Z,3.40
2022-12-27T11:34:57.505Z,4.50
2022-12-27T11:37:28.422Z,3.80
2022-12-27T11:40:15.030Z,5.93
2022-12-27T11:42:47.443Z,4.20
2022-12-27T11:45:22.989Z,5.50
2022-12-27T11:47:54.043Z,4.47
2022-12-27T11:50:39.810Z,4.60
2022-12-27T11:53:22.100Z,5.43
2022-12-27T11:56:18.891Z,4.03
2022-12-27T11:59:22.049Z,4.50
2022-12-27T12:02:21.962Z,3.43
2022-12-27T12:05:22.218Z,3.70
2022-12-27T12:08:05.738Z,4.67
2022-12-27T12:10:46.484Z,3.20
2022-12-27T12:13:36.521Z,4.57
2022-12-27T12:16:27.296Z,2.77
2022-12-27T12:19:07.030Z,4.40
2022-12-27T12:21:41.515Z,4.10
2022-12-27T12:24:41.900Z,3.87
2022-12-27T12:27:32.841Z,3.40
2022-12-27T12:30:13.512Z,3.67
2022-12-27T12:32:58.482Z,4.60
2022-12-27T12:35:41.321Z,5.33
2022-12-27T12:38:19.779Z,3.73
2022-12-27T12:41:01.909Z,3.30
2022-12-27T12:43:48.822Z,4.00
2022-12-27T12:46:28.609Z,5.20
2022-12-27T12:49:23.983Z,4.93
2022-12-27T12:52:02.534Z,4.87
2022-12-27T12:54:47.224Z,3.73
2022-12-27T12:57:32.653Z,4.20
2022-12-27T13:00:19.718Z,4.20
2022-12-27T13:03:09.524Z,3.40
2022-12-27T13:05:45.973Z,3.40
2022-12-27T13:08:23.487Z,3.90
2022-12-27T13:11:26.322Z,4.10
2022-12-27T13:14:15.174Z,4.07
2022-12-27T13:16:54.918Z,3.63
2022-12-27T13:19:42.033Z,4.10
2022-12-27T13:22:16.426Z,3.33
2022-12-27T13:24:57.926Z,3.70
2022-12-27T13:27:35.329Z,4.47
2022-12-27T13:30:14.925Z,6.10
2022-12-27T13:33:03.093Z,3.23
2022-12-27T13:35:43.213Z,4.50
2022-12-27T13:38:27.944Z,3.60
2022-12-27T13:41:11.606Z,4.63
2022-12-27T13:44:16.104Z,3.03
2022-12-27T13:47:17.325Z,3.77
2022-12-27T13:50:24.264Z,3.60
2022-12-27T13:53:14.317Z,3.83
2022-12-27T13:55:54.485Z,4.20
2022-12-27T13:58:38.392Z,4.23
2022-12-27T14:01:26.105Z,3.60
2022-12-27T14:04:22.643Z,3.97
2022-12-27T14:07:12.239Z,5.83
2022-12-27T14:10:06.866Z,4.23
2022-12-27T14:12:56.200Z,3.57
2022-12-27T14:15:28.236Z,3.90
2022-12-27T14:18:21.901Z,3.60
2022-12-27T14:21:26.602Z,3.87
2022-12-27T14:24:08.333Z,3.80
2022-12-27T14:27:01.585Z,3.10
2022-12-27T14:29:48.987Z,3.77
2022-12-27T14:33:02.143Z,3.57
2022-12-27T14:36:11.913Z,3.77
2022-12-27T14:39:01.847Z,3.80
2022-12-27T14:41:55.654Z,4.73
2022-12-27T14:45:14.087Z,3.97
2022-12-27T14:48:09.661Z,4.03
2022-12-27T14:51:03.705Z,4.10
2022-12-27T14:54:07.417Z,3.20
2022-12-27T14:56:46.684Z,4.03
2022-12-27T14:59:29.767Z,3.23
2022-12-27T15:02:13.024Z,4.33
2022-12-27T15:05:03.721Z,3.83
2022-12-27T15:08:00.059Z,3.60
2022-12-27T15:10:50.921Z,3.80
2022-12-27T15:13:30.807Z,4.47
2022-12-27T15:16:13.280Z,3.27
2022-12-27T15:19:01.528Z,3.10
2022-12-27T15:21:48.566Z,3.80
2022-12-27T15:24:29.741Z,3.47
2022-12-27T15:27:06.575Z,4.23
2022-12-27T15:29:48.812Z,5.97
2022-12-27T15:32:26.897Z,3.70
2022-12-27T15:35:06.897Z,4.10
2022-12-27T15:38:01.221Z,3.87
2022-12-27T15:40:51.833Z,4.00
2022-12-27T15:43:32.949Z,4.23
2022-12-27T15:46:18.514Z,3.70
2022-12-27T15:49:04.848Z,4.80
2022-12-27T15:51:37.945Z,4.17
2022-12-27T15:54:23.724Z,4.33
2022-12-27T15:57:08.742Z,4.53
2022-12-27T15:59:42.233Z,4.20
2022-12-27T16:02:25.569Z,3.70
2022-12-27T16:04:56.734Z,4.83
2022-12-27T16:07:40.475Z,5.43
2022-12-27T16:10:29.683Z,4.73
2022-12-27T16:13:00.250Z,5.13
2022-12-27T16:15:40.919Z,6.20
2022-12-27T16:18:32.531Z,6.80
2022-12-27T16:21:02.571Z,6.70
2022-12-27T16:23:33.968Z,7.17
2022-12-27T16:26:03.715Z,8.40
2022-12-27T16:28:32.784Z,7.27
2022-12-27T16:31:02.151Z,8.60
2022-12-27T16:33:37.281Z,7.27
2022-12-27T16:36:17.989Z,7.37
2022-12-27T16:38:49.249Z,7.20
2022-12-27T16:41:35.310Z,7.93
2022-12-27T16:44:16.902Z,8.40
2022-12-27T16:47:01.250Z,7.40
2022-12-27T16:49:49.001Z,8.40
2022-12-27T16:52:44.557Z,9.37
2022-12-27T16:55:30.449Z,8.33
2022-12-27T16:58:20.987Z,8.97
2022-12-27T17:00:50.344Z,9.17
2022-12-27T17:03:42.205Z,7.20
2022-12-27T17:06:47.094Z,6.67
2022-12-27T17:09:44.190Z,8.40
2022-12-27T17:12:19.420Z,8.33
2022-12-27T17:14:47.633Z,9.80
2022-12-27T17:17:20.721Z,9.33
2022-12-27T17:19:55.085Z,9.10
2022-12-27T17:22:27.381Z,7.30
2022-12-27T17:25:01.402Z,8.17
2022-12-27T17:27:41.845Z,8.30
2022-12-27T17:30:20.100Z,8.13
2022-12-27T17:33:04.163Z,9.00
2022-12-27T17:35:43.360Z,8.57
2022-12-27T17:38:25.457Z,7.50
2022-12-27T17:41:04.332Z,7.40
2022-12-27T17:43:59.796Z,6.43
2022-12-27T17:46:38.794Z,8.00
2022-12-27T17:49:10.792Z,7.23
2022-12-27T17:52:01.412Z,7.80
2022-12-27T17:54:47.152Z,6.90
2022-12-27T17:57:36.481Z,6.73
2022-12-27T18:00:06.017Z,7.17
2022-12-27T18:02:41.347Z,6.67
2022-12-27T18:05:14.420Z,5.17
2022-12-27T18:07:43.404Z,5.73
2022-12-27T18:10:21.679Z,5.77
2022-12-27T18:12:53.360Z,6.77
2022-12-27T18:15:22.888Z,6.93
2022-12-27T18:17:52.963Z,5.30
2022-12-27T18:20:32.398Z,6.20
2022-12-27T18:23:14.401Z,6.20
2022-12-27T18:25:52.547Z,4.47
2022-12-27T18:28:28.724Z,4.93
2022-12-27T18:31:04.181Z,5.20
2022-12-27T18:33:35.063Z,5.80
2022-12-27T18:36:05.837Z,5.23
2022-12-27T18:38:36.514Z,5.30
2022-12-27T18:41:07.089Z,5.63
2022-12-27T18:43:38.101Z,5.63
2022-12-27T18:46:06.135Z,4.60
2022-12-27T18:48:36.963Z,4.87
2022-12-27T18:51:04.827Z,5.70
2022-12-27T18:53:35.507Z,5.67
2022-12-27T18:56:06.055Z,4.97
2022-12-27T18:58:34.096Z,5.40
2022-12-27T19:01:05.492Z,5.10
2022-12-27T19:03:40.143Z,6.20
2022-12-27T19:06:10.911Z,5.60
2022-12-27T19:08:44.975Z,5.57
2022-12-27T19:11:21.021Z,5.07
2022-12-27T19:13:51.447Z,5.37
2022-12-27T19:16:25.361Z,5.50
2022-12-27T19:18:55.410Z,4.87
2022-12-27T19:21:31.098Z,4.80
2022-12-27T19:23:58.575Z,5.20
2022-12-27T19:26:32.343Z,4.40
2022-12-27T19:29:03.535Z,5.47
2022-12-27T19:31:32.592Z,4.67
2022-12-27T19:34:03.203Z,5.33
2022-12-27T19:36:34.622Z,4.47
2022-12-27T19:39:02.458Z,4.33
2022-12-27T19:41:31.646Z,4.50
2022-12-27T19:43:59.193Z,4.20
2022-12-27T19:46:30.808Z,5.50
2022-12-27T19:51:47.615Z,5.57
2022-12-27T19:54:18.019Z,4.03
2022-12-27T19:56:46.063Z,4.40
2022-12-27T19:59:17.256Z,4.17
2022-12-27T20:01:45.820Z,3.87
2022-12-27T20:04:15.309Z,3.70
2022-12-27T20:06:43.240Z,3.07
2022-12-27T20:09:14.770Z,3.50
2022-12-27T20:11:42.252Z,3.13
2022-12-27T20:14:09.920Z,3.27
2022-12-27T20:16:37.482Z,3.73
2022-12-27T20:19:05.143Z,3.17
2022-12-27T20:21:33.963Z,2.70
2022-12-27T20:24:01.448Z,3.20
2022-12-27T20:26:29.330Z,2.60
2022-12-27T20:28:56.836Z,3.20
2022-12-27T20:31:24.322Z,3.13
2022-12-27T20:33:52.385Z,3.37
2022-12-27T20:36:19.926Z,4.23
2022-12-27T20:38:48.891Z,4.93
2022-12-27T20:41:18.355Z,3.17
2022-12-27T20:43:46.171Z,3.50
2022-12-27T20:46:15.673Z,5.17
2022-12-27T20:48:45.145Z,2.80
2022-12-27T20:51:14.865Z,4.43
2022-12-27T20:53:42.540Z,3.67
2022-12-27T20:56:12.927Z,2.27
2022-12-27T20:58:41.135Z,2.50
2022-12-27T21:01:10.207Z,2.37
2022-12-27T21:03:38.723Z,2.30
2022-12-27T21:06:07.902Z,1.93
2022-12-27T21:08:40.491Z,2.50
2022-12-27T21:11:16.877Z,2.40
2022-12-27T21:13:45.336Z,2.20
2022-12-27T21:16:15.441Z,2.30
2022-12-27T21:18:42.945Z,1.97
2022-12-27T21:21:14.072Z,1.53
2022-12-27T21:23:43.240Z,2.23
2022-12-27T21:26:15.245Z,1.50
2022-12-27T21:28:43.292Z,1.83
2022-12-27T21:31:11.810Z,1.90
2022-12-27T21:33:39.730Z,2.03
2022-12-27T21:36:09.442Z,1.90
2022-12-27T21:38:37.150Z,2.20
2022-12-27T21:41:07.000Z,2.17
2022-12-27T21:43:35.974Z,2.23
2022-12-27T21:46:07.423Z,1.97
2022-12-27T21:48:35.987Z,1.77
2022-12-27T21:51:06.889Z,2.00
2022-12-27T21:53:34.318Z,1.87
2022-12-27T21:56:02.396Z,2.30
2022-12-27T21:58:30.732Z,1.90
2022-12-27T22:01:08.382Z,1.63
2022-12-27T22:03:39.054Z,2.07
2022-12-27T22:06:11.960Z,1.80
2022-12-27T22:08:39.790Z,1.80
2022-12-27T22:11:07.955Z,1.60
2022-12-27T22:13:35.654Z,1.77
2022-12-27T22:16:07.811Z,2.10
2022-12-27T22:18:37.441Z,1.83
2022-12-27T22:21:07.103Z,1.80
2022-12-27T22:23:36.728Z,2.00
2022-12-27T22:26:04.948Z,1.50
2022-12-27T22:28:32.904Z,1.70
2022-12-27T22:31:07.778Z,1.70
2022-12-27T22:33:36.013Z,1.77
2022-12-27T22:36:04.519Z,1.90
2022-12-27T22:38:32.293Z,2.30
2022-12-27T22:41:05.821Z,1.90
2022-12-27T22:43:33.323Z,2.07
2022-12-27T22:46:00.816Z,2.33
2022-12-27T22:48:29.698Z,2.13
2022-12-27T22:50:57.929Z,2.20
2022-12-27T22:53:25.376Z,1.60
2022-12-27T22:55:52.876Z,2.43
2022-12-27T22:58:20.348Z,2.00
2022-12-27T23:00:47.899Z,1.70
2022-12-27T23:03:16.038Z,1.63
2022-12-27T23:05:44.960Z,1.90
2022-12-27T23:08:12.551Z,1.70
2022-12-27T23:10:40.012Z,1.83
2022-12-27T23:13:07.483Z,2.10
2022-12-27T23:15:34.916Z,2.10
2022-12-27T23:18:02.375Z,1.90
2022-12-27T23:20:29.984Z,2.27
2022-12-27T23:22:58.798Z,2.63
2022-12-27T23:25:26.431Z,1.63
2022-12-27T23:27:54.057Z,2.50
2022-12-27T23:30:22.968Z,1.80
2022-12-27T23:32:50.627Z,1.70
2022-12-27T23:35:18.203Z,2.20
2022-12-27T23:37:45.719Z,1.40
2022-12-27T23:40:15.034Z,1.70
2022-12-27T23:42:42.561Z,2.60
2022-12-27T23:45:11.022Z,1.90
2022-12-27T23:47:38.761Z,1.67
2022-12-27T23:50:07.397Z,1.90
2022-12-27T23:52:34.849Z,2.30
2022-12-27T23:55:02.324Z,1.40
2022-12-27T23:57:31.130Z,1.80
2022-12-27T23:59:58.612Z,1.70
